Lumberton, NC

7:42 PM EST on December 07, 2016 (GMT -0500)
Lumberton Municipal | | Change Station

Elev 125 ft 34.61 °N, 79.06 °W | Updated 48 minutes ago

Mostly Cloudy
Mostly Cloudy
50 °F
Feels Like 50 °F
N
0
Wind Variable Wind from North

Today
High -- | Low -- °F
--% Chance of Precip.
Yesterday
High -- | Low -- °F
Precip. -- in
Pressure 30.07 in
Visibility 10.0 miles
Clouds Mostly Cloudy 5000 ft
Dew Point 48 °F
Humidity 93%
Rainfall 0.00 in
Snow Depth Not available.
7:10 AM 5:05 PM
First Quarter, 57% visible
METAR KLBT 072354Z AUTO 00000KT 10SM BKN050 10/09 A3007 RMK AO2 SLP182 T01000089 10167 20100 53015
Pressure 30.07 in
Visibility 10.0 miles
Clouds Mostly Cloudy 5000 ft
Dew Point 48 °F
Humidity 93%
Rainfall 0.00 in
Snow Depth Not available.
7:10 AM 5:05 PM
First Quarter, 57% visible
METAR KLBT 072354Z AUTO 00000KT 10SM BKN050 10/09 A3007 RMK AO2 SLP182 T01000089 10167 20100 53015

10-Day Weather Forecast

Almanac

Astronomy

Dec. 07, 2016 Rise Set
Actual Time
Civil Twilight
Nautical Twilight
Astronomical Twilight
Moon
Length of Visible Light
Length of Day
Tomorrow will be .
, % of the Moon is Illuminated

Today's Extremes

State Highs State Lows

Community

WunderPhotos

Upload Photos

1,956,220 photos uploaded!

WunderBlog® & News

Nearby

Air Quality

  Air Quality AQ Index Pollutant
Not available.

Snow Depth

Station Depth Elevation

Earthquake Activity

City Distance Mag. Time & Date
Minimum magnitude displayed is 2.5.

Coastal Water Temperatures

Place Temperature

Stations

Nearby Weather Stations

Station Location Temp. Windchill Dew Point Humidity Wind Precip. Elev Updated Type
                   

Watches & Warnings

There are currently no watches in effect.